sensor_id;sensor_type;location;lat;lon;timestamp;P1;durP1;ratioP1;P2;durP2;ratioP2
38053;SDS011;23859;50.672;7.164;2023-07-29T00:02:08;3.08;;;2.33;;
38053;SDS011;23859;50.672;7.164;2023-07-29T00:04:35;2.53;;;2.30;;
38053;SDS011;23859;50.672;7.164;2023-07-29T00:07:01;3.90;;;2.53;;
38053;SDS011;23859;50.672;7.164;2023-07-29T00:09:27;3.95;;;2.70;;
38053;SDS011;23859;50.672;7.164;2023-07-29T00:11:53;7.13;;;3.30;;
38053;SDS011;23859;50.672;7.164;2023-07-29T00:14:19;3.65;;;2.55;;
38053;SDS011;23859;50.672;7.164;2023-07-29T00:16:45;7.72;;;3.10;;
38053;SDS011;23859;50.672;7.164;2023-07-29T00:19:11;7.53;;;2.50;;
38053;SDS011;23859;50.672;7.164;2023-07-29T00:21:37;3.38;;;2.30;;
38053;SDS011;23859;50.672;7.164;2023-07-29T00:24:03;2.80;;;2.40;;
38053;SDS011;23859;50.672;7.164;2023-07-29T00:26:29;3.70;;;2.25;;
38053;SDS011;23859;50.672;7.164;2023-07-29T00:28:56;4.57;;;3.13;;
38053;SDS011;23859;50.672;7.164;2023-07-29T00:31:22;6.75;;;3.30;;
38053;SDS011;23859;50.672;7.164;2023-07-29T00:33:48;5.85;;;3.00;;
38053;SDS011;23859;50.672;7.164;2023-07-29T00:36:14;8.43;;;3.53;;
38053;SDS011;23859;50.672;7.164;2023-07-29T00:38:40;6.22;;;4.20;;
38053;SDS011;23859;50.672;7.164;2023-07-29T00:41:06;6.32;;;3.60;;
38053;SDS011;23859;50.672;7.164;2023-07-29T00:43:33;3.67;;;2.95;;
38053;SDS011;23859;50.672;7.164;2023-07-29T00:45:59;5.97;;;2.95;;
38053;SDS011;23859;50.672;7.164;2023-07-29T00:48:25;4.78;;;2.75;;
38053;SDS011;23859;50.672;7.164;2023-07-29T00:50:51;4.13;;;2.58;;
38053;SDS011;23859;50.672;7.164;2023-07-29T00:53:19;3.67;;;2.30;;
38053;SDS011;23859;50.672;7.164;2023-07-29T00:55:45;3.25;;;1.88;;
38053;SDS011;23859;50.672;7.164;2023-07-29T00:58:11;3.33;;;2.55;;
38053;SDS011;23859;50.672;7.164;2023-07-29T01:00:37;10.95;;;1.88;;
38053;SDS011;23859;50.672;7.164;2023-07-29T01:03:04;2.15;;;1.92;;
38053;SDS011;23859;50.672;7.164;2023-07-29T01:05:32;3.25;;;1.75;;
38053;SDS011;23859;50.672;7.164;2023-07-29T01:08:22;3.80;;;2.00;;
38053;SDS011;23859;50.672;7.164;2023-07-29T01:11:03;5.75;;;2.50;;
38053;SDS011;23859;50.672;7.164;2023-07-29T01:13:48;4.70;;;2.38;;
38053;SDS011;23859;50.672;7.164;2023-07-29T01:16:33;2.83;;;2.28;;
38053;SDS011;23859;50.672;7.164;2023-07-29T01:19:08;2.40;;;2.10;;
38053;SDS011;23859;50.672;7.164;2023-07-29T01:21:52;4.85;;;2.22;;
38053;SDS011;23859;50.672;7.164;2023-07-29T01:24:20;8.35;;;1.90;;
38053;SDS011;23859;50.672;7.164;2023-07-29T01:26:46;1.90;;;1.63;;
38053;SDS011;23859;50.672;7.164;2023-07-29T01:29:12;2.05;;;1.60;;
38053;SDS011;23859;50.672;7.164;2023-07-29T01:31:40;3.92;;;1.70;;
38053;SDS011;23859;50.672;7.164;2023-07-29T01:34:11;7.00;;;2.25;;
38053;SDS011;23859;50.672;7.164;2023-07-29T01:36:54;4.85;;;3.33;;
38053;SDS011;23859;50.672;7.164;2023-07-29T01:39:24;2.75;;;2.33;;
38053;SDS011;23859;50.672;7.164;2023-07-29T01:41:54;2.42;;;2.00;;
38053;SDS011;23859;50.672;7.164;2023-07-29T01:44:20;4.28;;;2.17;;
38053;SDS011;23859;50.672;7.164;2023-07-29T01:46:47;7.88;;;2.42;;
38053;SDS011;23859;50.672;7.164;2023-07-29T01:49:14;8.23;;;2.58;;
38053;SDS011;23859;50.672;7.164;2023-07-29T01:51:40;4.18;;;2.63;;
38053;SDS011;23859;50.672;7.164;2023-07-29T01:54:06;5.15;;;3.10;;
38053;SDS011;23859;50.672;7.164;2023-07-29T01:56:32;4.55;;;2.75;;
38053;SDS011;23859;50.672;7.164;2023-07-29T01:58:58;4.20;;;2.80;;
38053;SDS011;23859;50.672;7.164;2023-07-29T02:01:24;4.32;;;2.75;;
38053;SDS011;23859;50.672;7.164;2023-07-29T02:03:50;3.65;;;3.05;;
38053;SDS011;23859;50.672;7.164;2023-07-29T02:06:20;5.60;;;2.85;;
38053;SDS011;23859;50.672;7.164;2023-07-29T02:08:46;4.60;;;2.80;;
38053;SDS011;23859;50.672;7.164;2023-07-29T02:11:12;6.68;;;3.03;;
38053;SDS011;23859;50.672;7.164;2023-07-29T02:13:38;4.65;;;2.83;;
38053;SDS011;23859;50.672;7.164;2023-07-29T02:16:04;4.95;;;3.45;;
38053;SDS011;23859;50.672;7.164;2023-07-29T02:18:30;4.75;;;2.80;;
38053;SDS011;23859;50.672;7.164;2023-07-29T02:20:56;3.25;;;2.95;;
38053;SDS011;23859;50.672;7.164;2023-07-29T02:23:22;3.38;;;2.92;;
38053;SDS011;23859;50.672;7.164;2023-07-29T02:25:48;6.00;;;2.70;;
38053;SDS011;23859;50.672;7.164;2023-07-29T02:28:15;6.00;;;2.92;;
38053;SDS011;23859;50.672;7.164;2023-07-29T02:30:41;4.28;;;3.03;;
38053;SDS011;23859;50.672;7.164;2023-07-29T02:33:09;4.18;;;2.85;;
38053;SDS011;23859;50.672;7.164;2023-07-29T02:35:36;4.65;;;2.58;;
38053;SDS011;23859;50.672;7.164;2023-07-29T02:38:02;4.07;;;3.08;;
38053;SDS011;23859;50.672;7.164;2023-07-29T02:40:28;4.15;;;2.63;;
38053;SDS011;23859;50.672;7.164;2023-07-29T02:42:54;3.00;;;2.70;;
38053;SDS011;23859;50.672;7.164;2023-07-29T02:45:20;6.07;;;2.72;;
38053;SDS011;23859;50.672;7.164;2023-07-29T02:47:46;3.88;;;2.92;;
38053;SDS011;23859;50.672;7.164;2023-07-29T02:50:12;5.15;;;2.95;;
38053;SDS011;23859;50.672;7.164;2023-07-29T02:52:38;3.63;;;2.50;;
38053;SDS011;23859;50.672;7.164;2023-07-29T02:55:04;6.03;;;2.90;;
38053;SDS011;23859;50.672;7.164;2023-07-29T02:57:31;3.35;;;2.80;;
38053;SDS011;23859;50.672;7.164;2023-07-29T02:59:57;9.02;;;2.72;;
38053;SDS011;23859;50.672;7.164;2023-07-29T03:02:23;5.88;;;3.08;;
38053;SDS011;23859;50.672;7.164;2023-07-29T03:04:49;4.53;;;2.92;;
38053;SDS011;23859;50.672;7.164;2023-07-29T03:07:15;3.13;;;2.58;;
38053;SDS011;23859;50.672;7.164;2023-07-29T03:09:41;4.18;;;2.60;;
38053;SDS011;23859;50.672;7.164;2023-07-29T03:12:07;4.43;;;2.60;;
38053;SDS011;23859;50.672;7.164;2023-07-29T03:14:33;4.10;;;2.70;;
38053;SDS011;23859;50.672;7.164;2023-07-29T03:17:03;6.88;;;3.03;;
38053;SDS011;23859;50.672;7.164;2023-07-29T03:19:29;4.28;;;2.80;;
38053;SDS011;23859;50.672;7.164;2023-07-29T03:21:55;5.40;;;2.88;;
38053;SDS011;23859;50.672;7.164;2023-07-29T03:24:21;5.80;;;2.95;;
38053;SDS011;23859;50.672;7.164;2023-07-29T03:26:47;2.80;;;2.53;;
38053;SDS011;23859;50.672;7.164;2023-07-29T03:29:13;3.60;;;2.53;;
38053;SDS011;23859;50.672;7.164;2023-07-29T03:31:39;11.02;;;3.20;;
38053;SDS011;23859;50.672;7.164;2023-07-29T03:34:05;4.07;;;2.63;;
38053;SDS011;23859;50.672;7.164;2023-07-29T03:36:31;10.50;;;2.15;;
38053;SDS011;23859;50.672;7.164;2023-07-29T03:38:57;2.28;;;1.52;;
38053;SDS011;23859;50.672;7.164;2023-07-29T03:41:25;4.40;;;2.00;;
38053;SDS011;23859;50.672;7.164;2023-07-29T03:43:51;1.58;;;1.35;;
38053;SDS011;23859;50.672;7.164;2023-07-29T03:46:17;2.45;;;1.58;;
38053;SDS011;23859;50.672;7.164;2023-07-29T03:48:46;3.08;;;1.42;;
38053;SDS011;23859;50.672;7.164;2023-07-29T03:51:12;2.22;;;1.58;;
38053;SDS011;23859;50.672;7.164;2023-07-29T03:53:38;3.13;;;1.45;;
38053;SDS011;23859;50.672;7.164;2023-07-29T03:56:04;2.50;;;1.50;;
38053;SDS011;23859;50.672;7.164;2023-07-29T03:58:31;2.15;;;1.30;;
38053;SDS011;23859;50.672;7.164;2023-07-29T04:00:57;1.80;;;1.20;;
38053;SDS011;23859;50.672;7.164;2023-07-29T04:03:23;4.45;;;1.80;;
38053;SDS011;23859;50.672;7.164;2023-07-29T04:05:50;2.95;;;1.50;;
38053;SDS011;23859;50.672;7.164;2023-07-29T04:08:16;3.30;;;1.65;;
38053;SDS011;23859;50.672;7.164;2023-07-29T04:10:42;2.92;;;1.90;;
38053;SDS011;23859;50.672;7.164;2023-07-29T04:13:08;3.22;;;1.63;;
38053;SDS011;23859;50.672;7.164;2023-07-29T04:15:34;5.78;;;2.15;;
38053;SDS011;23859;50.672;7.164;2023-07-29T04:18:00;4.28;;;1.98;;
38053;SDS011;23859;50.672;7.164;2023-07-29T04:20:26;3.83;;;1.85;;
38053;SDS011;23859;50.672;7.164;2023-07-29T04:22:53;3.15;;;2.13;;
38053;SDS011;23859;50.672;7.164;2023-07-29T04:25:19;4.75;;;1.65;;
38053;SDS011;23859;50.672;7.164;2023-07-29T04:27:45;3.00;;;1.90;;
38053;SDS011;23859;50.672;7.164;2023-07-29T04:30:11;4.50;;;2.42;;
38053;SDS011;23859;50.672;7.164;2023-07-29T04:32:37;4.13;;;2.42;;
38053;SDS011;23859;50.672;7.164;2023-07-29T04:35:03;3.90;;;2.42;;
38053;SDS011;23859;50.672;7.164;2023-07-29T04:37:29;4.32;;;2.20;;
38053;SDS011;23859;50.672;7.164;2023-07-29T04:39:55;2.20;;;2.00;;
38053;SDS011;23859;50.672;7.164;2023-07-29T04:42:21;2.60;;;2.17;;
38053;SDS011;23859;50.672;7.164;2023-07-29T04:44:47;3.80;;;2.20;;
38053;SDS011;23859;50.672;7.164;2023-07-29T04:47:14;5.93;;;2.47;;
38053;SDS011;23859;50.672;7.164;2023-07-29T04:49:40;5.13;;;2.55;;
38053;SDS011;23859;50.672;7.164;2023-07-29T04:52:06;4.32;;;2.55;;
38053;SDS011;23859;50.672;7.164;2023-07-29T04:54:32;3.13;;;2.05;;
38053;SDS011;23859;50.672;7.164;2023-07-29T04:56:58;3.38;;;2.42;;
38053;SDS011;23859;50.672;7.164;2023-07-29T04:59:24;2.20;;;1.55;;
38053;SDS011;23859;50.672;7.164;2023-07-29T05:01:50;3.58;;;2.10;;
38053;SDS011;23859;50.672;7.164;2023-07-29T05:04:16;2.83;;;2.10;;
38053;SDS011;23859;50.672;7.164;2023-07-29T05:06:42;6.20;;;2.30;;
38053;SDS011;23859;50.672;7.164;2023-07-29T05:09:12;7.35;;;2.70;;
38053;SDS011;23859;50.672;7.164;2023-07-29T05:11:42;4.38;;;2.47;;
38053;SDS011;23859;50.672;7.164;2023-07-29T05:14:10;4.15;;;2.30;;
38053;SDS011;23859;50.672;7.164;2023-07-29T05:16:37;4.15;;;2.40;;
38053;SDS011;23859;50.672;7.164;2023-07-29T05:19:03;6.95;;;2.75;;
38053;SDS011;23859;50.672;7.164;2023-07-29T05:21:29;2.38;;;2.03;;
38053;SDS011;23859;50.672;7.164;2023-07-29T05:23:56;6.78;;;2.90;;
38053;SDS011;23859;50.672;7.164;2023-07-29T05:26:22;6.10;;;2.63;;
38053;SDS011;23859;50.672;7.164;2023-07-29T05:28:48;3.47;;;2.33;;
38053;SDS011;23859;50.672;7.164;2023-07-29T05:31:14;2.42;;;2.15;;
38053;SDS011;23859;50.672;7.164;2023-07-29T05:33:40;2.97;;;2.20;;
38053;SDS011;23859;50.672;7.164;2023-07-29T05:36:06;2.80;;;2.15;;
38053;SDS011;23859;50.672;7.164;2023-07-29T05:38:32;2.67;;;2.20;;
38053;SDS011;23859;50.672;7.164;2023-07-29T05:40:58;3.75;;;2.20;;
38053;SDS011;23859;50.672;7.164;2023-07-29T05:43:25;2.20;;;1.77;;
38053;SDS011;23859;50.672;7.164;2023-07-29T05:45:52;3.83;;;2.30;;
38053;SDS011;23859;50.672;7.164;2023-07-29T05:48:19;4.93;;;2.38;;
38053;SDS011;23859;50.672;7.164;2023-07-29T05:50:45;5.38;;;2.20;;
38053;SDS011;23859;50.672;7.164;2023-07-29T05:53:11;4.07;;;1.80;;
38053;SDS011;23859;50.672;7.164;2023-07-29T05:55:37;2.67;;;2.25;;
38053;SDS011;23859;50.672;7.164;2023-07-29T05:58:03;2.78;;;2.08;;
38053;SDS011;23859;50.672;7.164;2023-07-29T06:00:29;3.42;;;2.20;;
38053;SDS011;23859;50.672;7.164;2023-07-29T06:02:55;3.53;;;2.22;;
38053;SDS011;23859;50.672;7.164;2023-07-29T06:05:21;3.08;;;2.20;;
38053;SDS011;23859;50.672;7.164;2023-07-29T06:07:47;1.85;;;1.75;;
38053;SDS011;23859;50.672;7.164;2023-07-29T06:10:14;4.00;;;2.50;;
38053;SDS011;23859;50.672;7.164;2023-07-29T06:12:44;2.40;;;2.20;;
38053;SDS011;23859;50.672;7.164;2023-07-29T06:15:11;2.15;;;1.92;;
38053;SDS011;23859;50.672;7.164;2023-07-29T06:17:37;3.85;;;2.13;;
38053;SDS011;23859;50.672;7.164;2023-07-29T06:20:04;3.88;;;2.10;;
38053;SDS011;23859;50.672;7.164;2023-07-29T06:22:31;4.28;;;2.33;;
38053;SDS011;23859;50.672;7.164;2023-07-29T06:24:57;3.45;;;1.98;;
38053;SDS011;23859;50.672;7.164;2023-07-29T06:27:23;6.97;;;2.40;;
38053;SDS011;23859;50.672;7.164;2023-07-29T06:29:50;3.53;;;2.45;;
38053;SDS011;23859;50.672;7.164;2023-07-29T06:32:16;3.65;;;3.00;;
38053;SDS011;23859;50.672;7.164;2023-07-29T06:34:42;3.58;;;3.10;;
38053;SDS011;23859;50.672;7.164;2023-07-29T06:37:08;4.20;;;2.13;;
38053;SDS011;23859;50.672;7.164;2023-07-29T06:39:34;3.45;;;2.50;;
38053;SDS011;23859;50.672;7.164;2023-07-29T06:42:00;3.88;;;2.30;;
38053;SDS011;23859;50.672;7.164;2023-07-29T06:44:27;4.53;;;2.22;;
38053;SDS011;23859;50.672;7.164;2023-07-29T06:46:53;2.63;;;2.03;;
38053;SDS011;23859;50.672;7.164;2023-07-29T06:49:19;3.15;;;2.22;;
38053;SDS011;23859;50.672;7.164;2023-07-29T06:51:45;3.72;;;2.33;;
38053;SDS011;23859;50.672;7.164;2023-07-29T06:54:11;4.30;;;2.50;;
38053;SDS011;23859;50.672;7.164;2023-07-29T06:56:37;4.60;;;2.22;;
38053;SDS011;23859;50.672;7.164;2023-07-29T06:59:03;3.38;;;2.83;;
38053;SDS011;23859;50.672;7.164;2023-07-29T07:01:29;2.80;;;2.03;;
38053;SDS011;23859;50.672;7.164;2023-07-29T07:03:55;3.85;;;2.20;;
38053;SDS011;23859;50.672;7.164;2023-07-29T07:06:23;3.00;;;2.40;;
38053;SDS011;23859;50.672;7.164;2023-07-29T07:08:49;2.72;;;2.03;;
38053;SDS011;23859;50.672;7.164;2023-07-29T07:11:16;2.58;;;2.03;;
38053;SDS011;23859;50.672;7.164;2023-07-29T07:13:45;2.47;;;2.20;;
38053;SDS011;23859;50.672;7.164;2023-07-29T07:16:11;4.80;;;2.10;;
38053;SDS011;23859;50.672;7.164;2023-07-29T07:18:37;5.03;;;2.70;;
38053;SDS011;23859;50.672;7.164;2023-07-29T07:21:03;3.15;;;2.08;;
38053;SDS011;23859;50.672;7.164;2023-07-29T07:23:29;2.72;;;1.45;;
38053;SDS011;23859;50.672;7.164;2023-07-29T07:25:55;1.80;;;1.30;;
38053;SDS011;23859;50.672;7.164;2023-07-29T07:28:21;7.18;;;1.30;;
38053;SDS011;23859;50.672;7.164;2023-07-29T07:30:47;2.35;;;1.70;;
38053;SDS011;23859;50.672;7.164;2023-07-29T07:33:13;2.20;;;1.40;;
38053;SDS011;23859;50.672;7.164;2023-07-29T07:35:40;2.25;;;1.55;;
38053;SDS011;23859;50.672;7.164;2023-07-29T07:38:07;2.10;;;1.42;;
38053;SDS011;23859;50.672;7.164;2023-07-29T07:40:34;4.13;;;1.40;;
38053;SDS011;23859;50.672;7.164;2023-07-29T07:43:01;3.22;;;2.40;;
38053;SDS011;23859;50.672;7.164;2023-07-29T07:45:27;2.42;;;1.92;;
38053;SDS011;23859;50.672;7.164;2023-07-29T07:47:53;10.23;;;2.50;;
38053;SDS011;23859;50.672;7.164;2023-07-29T07:50:21;3.13;;;1.75;;
38053;SDS011;23859;50.672;7.164;2023-07-29T07:52:49;2.75;;;2.38;;
38053;SDS011;23859;50.672;7.164;2023-07-29T07:55:15;5.20;;;2.58;;
38053;SDS011;23859;50.672;7.164;2023-07-29T07:57:41;4.05;;;2.38;;
38053;SDS011;23859;50.672;7.164;2023-07-29T08:00:07;3.53;;;1.70;;
38053;SDS011;23859;50.672;7.164;2023-07-29T08:02:34;2.90;;;1.33;;
38053;SDS011;23859;50.672;7.164;2023-07-29T08:05:00;3.25;;;1.83;;
38053;SDS011;23859;50.672;7.164;2023-07-29T08:07:26;3.78;;;2.20;;
38053;SDS011;23859;50.672;7.164;2023-07-29T08:09:52;5.28;;;1.40;;
38053;SDS011;23859;50.672;7.164;2023-07-29T08:12:18;2.80;;;1.80;;
38053;SDS011;23859;50.672;7.164;2023-07-29T08:14:45;3.05;;;1.30;;
38053;SDS011;23859;50.672;7.164;2023-07-29T08:17:11;1.48;;;1.35;;
38053;SDS011;23859;50.672;7.164;2023-07-29T08:19:37;2.30;;;1.70;;
38053;SDS011;23859;50.672;7.164;2023-07-29T08:22:03;1.92;;;1.42;;
38053;SDS011;23859;50.672;7.164;2023-07-29T08:24:29;3.88;;;1.83;;
38053;SDS011;23859;50.672;7.164;2023-07-29T08:26:55;3.03;;;1.90;;
38053;SDS011;23859;50.672;7.164;2023-07-29T08:29:21;6.07;;;2.10;;
38053;SDS011;23859;50.672;7.164;2023-07-29T08:31:47;4.53;;;1.92;;
38053;SDS011;23859;50.672;7.164;2023-07-29T08:34:13;2.63;;;2.15;;
38053;SDS011;23859;50.672;7.164;2023-07-29T08:36:39;3.63;;;2.13;;
38053;SDS011;23859;50.672;7.164;2023-07-29T08:39:05;4.30;;;2.15;;
38053;SDS011;23859;50.672;7.164;2023-07-29T08:41:41;2.20;;;1.83;;
38053;SDS011;23859;50.672;7.164;2023-07-29T08:44:20;2.80;;;2.00;;
38053;SDS011;23859;50.672;7.164;2023-07-29T08:46:48;4.40;;;1.83;;
38053;SDS011;23859;50.672;7.164;2023-07-29T08:49:15;1.85;;;1.55;;
38053;SDS011;23859;50.672;7.164;2023-07-29T08:51:44;2.58;;;1.83;;
38053;SDS011;23859;50.672;7.164;2023-07-29T08:54:14;2.33;;;1.33;;
38053;SDS011;23859;50.672;7.164;2023-07-29T08:56:40;2.20;;;1.75;;
38053;SDS011;23859;50.672;7.164;2023-07-29T08:59:08;2.50;;;1.90;;
38053;SDS011;23859;50.672;7.164;2023-07-29T09:01:35;5.30;;;2.25;;
38053;SDS011;23859;50.672;7.164;2023-07-29T09:04:03;4.13;;;2.08;;
38053;SDS011;23859;50.672;7.164;2023-07-29T09:06:29;4.50;;;2.15;;
38053;SDS011;23859;50.672;7.164;2023-07-29T09:08:57;2.40;;;2.05;;
38053;SDS011;23859;50.672;7.164;2023-07-29T09:11:24;2.28;;;1.80;;
38053;SDS011;23859;50.672;7.164;2023-07-29T09:13:51;2.40;;;1.88;;
38053;SDS011;23859;50.672;7.164;2023-07-29T09:16:17;6.13;;;2.55;;
38053;SDS011;23859;50.672;7.164;2023-07-29T09:18:47;2.33;;;1.80;;
38053;SDS011;23859;50.672;7.164;2023-07-29T09:21:15;5.15;;;2.30;;
38053;SDS011;23859;50.672;7.164;2023-07-29T09:23:47;7.75;;;2.30;;
38053;SDS011;23859;50.672;7.164;2023-07-29T09:26:18;2.58;;;2.10;;
38053;SDS011;23859;50.672;7.164;2023-07-29T09:28:52;3.13;;;2.42;;
38053;SDS011;23859;50.672;7.164;2023-07-29T09:31:22;3.45;;;2.10;;
38053;SDS011;23859;50.672;7.164;2023-07-29T09:33:49;2.90;;;1.92;;
38053;SDS011;23859;50.672;7.164;2023-07-29T09:36:26;3.35;;;1.95;;
38053;SDS011;23859;50.672;7.164;2023-07-29T09:38:55;2.58;;;1.80;;
38053;SDS011;23859;50.672;7.164;2023-07-29T09:41:22;2.00;;;1.80;;
38053;SDS011;23859;50.672;7.164;2023-07-29T09:43:54;2.63;;;2.28;;
38053;SDS011;23859;50.672;7.164;2023-07-29T09:46:31;3.50;;;1.90;;
38053;SDS011;23859;50.672;7.164;2023-07-29T09:48:59;1.70;;;1.60;;
38053;SDS011;23859;50.672;7.164;2023-07-29T09:51:26;2.28;;;2.08;;
38053;SDS011;23859;50.672;7.164;2023-07-29T09:53:52;2.17;;;1.42;;
38053;SDS011;23859;50.672;7.164;2023-07-29T09:56:18;2.63;;;2.17;;
38053;SDS011;23859;50.672;7.164;2023-07-29T09:58:51;3.30;;;2.17;;
38053;SDS011;23859;50.672;7.164;2023-07-29T10:01:17;3.25;;;1.92;;
38053;SDS011;23859;50.672;7.164;2023-07-29T10:03:44;2.58;;;1.80;;
38053;SDS011;23859;50.672;7.164;2023-07-29T10:06:11;4.10;;;2.03;;
38053;SDS011;23859;50.672;7.164;2023-07-29T10:08:39;3.25;;;1.70;;
38053;SDS011;23859;50.672;7.164;2023-07-29T10:11:06;3.88;;;1.60;;
38053;SDS011;23859;50.672;7.164;2023-07-29T10:13:33;1.98;;;1.63;;
38053;SDS011;23859;50.672;7.164;2023-07-29T10:16:02;3.38;;;1.85;;
38053;SDS011;23859;50.672;7.164;2023-07-29T10:18:29;2.60;;;1.50;;
38053;SDS011;23859;50.672;7.164;2023-07-29T10:20:56;2.45;;;1.83;;
38053;SDS011;23859;50.672;7.164;2023-07-29T10:23:24;1.75;;;1.50;;
38053;SDS011;23859;50.672;7.164;2023-07-29T10:26:05;2.20;;;1.60;;
38053;SDS011;23859;50.672;7.164;2023-07-29T10:28:34;2.35;;;1.80;;
38053;SDS011;23859;50.672;7.164;2023-07-29T10:31:05;3.20;;;1.55;;
38053;SDS011;23859;50.672;7.164;2023-07-29T10:33:32;1.15;;;0.98;;
38053;SDS011;23859;50.672;7.164;2023-07-29T10:35:59;2.85;;;1.67;;
38053;SDS011;23859;50.672;7.164;2023-07-29T10:38:27;3.17;;;1.52;;
38053;SDS011;23859;50.672;7.164;2023-07-29T10:40:57;2.08;;;1.60;;
38053;SDS011;23859;50.672;7.164;2023-07-29T10:43:32;4.55;;;1.52;;
38053;SDS011;23859;50.672;7.164;2023-07-29T10:46:18;3.03;;;1.77;;
38053;SDS011;23859;50.672;7.164;2023-07-29T10:51:24;2.75;;;1.70;;
38053;SDS011;23859;50.672;7.164;2023-07-29T10:53:52;2.72;;;1.60;;
38053;SDS011;23859;50.672;7.164;2023-07-29T10:56:29;4.20;;;1.95;;
38053;SDS011;23859;50.672;7.164;2023-07-29T10:59:01;2.40;;;1.80;;
38053;SDS011;23859;50.672;7.164;2023-07-29T11:01:38;2.58;;;1.80;;
38053;SDS011;23859;50.672;7.164;2023-07-29T11:12:33;5.32;;;2.35;;
38053;SDS011;23859;50.672;7.164;2023-07-29T11:14:59;3.72;;;2.08;;
38053;SDS011;23859;50.672;7.164;2023-07-29T11:17:32;2.65;;;2.20;;
38053;SDS011;23859;50.672;7.164;2023-07-29T11:20:02;2.67;;;1.88;;
38053;SDS011;23859;50.672;7.164;2023-07-29T11:22:29;3.72;;;1.92;;
38053;SDS011;23859;50.672;7.164;2023-07-29T11:24:55;2.40;;;1.90;;
38053;SDS011;23859;50.672;7.164;2023-07-29T11:27:22;3.40;;;2.03;;
38053;SDS011;23859;50.672;7.164;2023-07-29T11:29:48;4.50;;;1.90;;
38053;SDS011;23859;50.672;7.164;2023-07-29T11:32:15;4.28;;;1.83;;
38053;SDS011;23859;50.672;7.164;2023-07-29T11:34:41;3.90;;;2.30;;
38053;SDS011;23859;50.672;7.164;2023-07-29T11:37:10;1.95;;;1.60;;
38053;SDS011;23859;50.672;7.164;2023-07-29T11:39:40;2.88;;;2.08;;
38053;SDS011;23859;50.672;7.164;2023-07-29T11:42:06;3.67;;;1.77;;
38053;SDS011;23859;50.672;7.164;2023-07-29T11:44:36;4.57;;;1.73;;
38053;SDS011;23859;50.672;7.164;2023-07-29T11:47:05;3.10;;;1.92;;
38053;SDS011;23859;50.672;7.164;2023-07-29T11:49:33;4.85;;;2.00;;
38053;SDS011;23859;50.672;7.164;2023-07-29T11:51:59;5.05;;;2.00;;
38053;SDS011;23859;50.672;7.164;2023-07-29T11:54:27;2.47;;;1.75;;
38053;SDS011;23859;50.672;7.164;2023-07-29T11:56:53;2.80;;;1.80;;
38053;SDS011;23859;50.672;7.164;2023-07-29T11:59:21;2.97;;;1.95;;
38053;SDS011;23859;50.672;7.164;2023-07-29T12:01:47;2.15;;;1.70;;
38053;SDS011;23859;50.672;7.164;2023-07-29T12:04:13;2.25;;;1.65;;
38053;SDS011;23859;50.672;7.164;2023-07-29T12:06:40;2.97;;;1.60;;
38053;SDS011;23859;50.672;7.164;2023-07-29T12:09:06;1.98;;;1.67;;
38053;SDS011;23859;50.672;7.164;2023-07-29T12:11:34;2.00;;;1.65;;
38053;SDS011;23859;50.672;7.164;2023-07-29T12:14:00;1.98;;;1.33;;
38053;SDS011;23859;50.672;7.164;2023-07-29T12:16:26;1.88;;;1.45;;
38053;SDS011;23859;50.672;7.164;2023-07-29T12:18:59;2.47;;;1.60;;
38053;SDS011;23859;50.672;7.164;2023-07-29T12:21:25;3.53;;;1.70;;
38053;SDS011;23859;50.672;7.164;2023-07-29T12:23:51;2.47;;;1.73;;
38053;SDS011;23859;50.672;7.164;2023-07-29T12:26:18;2.92;;;1.77;;
38053;SDS011;23859;50.672;7.164;2023-07-29T12:28:46;2.05;;;1.70;;
38053;SDS011;23859;50.672;7.164;2023-07-29T12:31:14;2.92;;;2.13;;
38053;SDS011;23859;50.672;7.164;2023-07-29T12:33:40;1.63;;;1.50;;
38053;SDS011;23859;50.672;7.164;2023-07-29T12:36:07;2.22;;;1.48;;
38053;SDS011;23859;50.672;7.164;2023-07-29T12:38:33;2.38;;;1.80;;
38053;SDS011;23859;50.672;7.164;2023-07-29T12:41:00;4.28;;;1.80;;
38053;SDS011;23859;50.672;7.164;2023-07-29T12:43:26;2.10;;;1.63;;
38053;SDS011;23859;50.672;7.164;2023-07-29T12:45:53;2.63;;;1.75;;
38053;SDS011;23859;50.672;7.164;2023-07-29T12:48:19;2.65;;;1.85;;
38053;SDS011;23859;50.672;7.164;2023-07-29T12:50:46;3.13;;;1.73;;
38053;SDS011;23859;50.672;7.164;2023-07-29T12:53:12;2.03;;;1.55;;
38053;SDS011;23859;50.672;7.164;2023-07-29T12:55:38;1.20;;;1.10;;
38053;SDS011;23859;50.672;7.164;2023-07-29T12:58:04;1.77;;;1.30;;
38053;SDS011;23859;50.672;7.164;2023-07-29T13:00:30;2.63;;;1.70;;
38053;SDS011;23859;50.672;7.164;2023-07-29T13:02:56;1.95;;;1.52;;
38053;SDS011;23859;50.672;7.164;2023-07-29T13:05:22;2.50;;;1.65;;
38053;SDS011;23859;50.672;7.164;2023-07-29T13:07:48;5.50;;;1.77;;
38053;SDS011;23859;50.672;7.164;2023-07-29T13:10:15;4.78;;;1.80;;
38053;SDS011;23859;50.672;7.164;2023-07-29T13:12:42;2.53;;;1.90;;
38053;SDS011;23859;50.672;7.164;2023-07-29T13:15:08;1.73;;;1.38;;
38053;SDS011;23859;50.672;7.164;2023-07-29T13:17:34;2.30;;;1.73;;
38053;SDS011;23859;50.672;7.164;2023-07-29T13:20:00;4.13;;;1.73;;
38053;SDS011;23859;50.672;7.164;2023-07-29T13:22:26;2.47;;;2.20;;
38053;SDS011;23859;50.672;7.164;2023-07-29T13:24:52;3.15;;;1.83;;
38053;SDS011;23859;50.672;7.164;2023-07-29T13:27:18;3.40;;;1.55;;
38053;SDS011;23859;50.672;7.164;2023-07-29T13:29:44;5.32;;;1.55;;
38053;SDS011;23859;50.672;7.164;2023-07-29T13:32:11;1.88;;;1.40;;
38053;SDS011;23859;50.672;7.164;2023-07-29T13:34:37;3.92;;;1.67;;
38053;SDS011;23859;50.672;7.164;2023-07-29T13:37:05;4.50;;;1.58;;
38053;SDS011;23859;50.672;7.164;2023-07-29T13:39:31;1.85;;;1.60;;
38053;SDS011;23859;50.672;7.164;2023-07-29T13:41:57;3.08;;;1.45;;
38053;SDS011;23859;50.672;7.164;2023-07-29T13:44:23;2.78;;;1.95;;
38053;SDS011;23859;50.672;7.164;2023-07-29T13:46:49;4.40;;;1.90;;
38053;SDS011;23859;50.672;7.164;2023-07-29T13:49:15;4.65;;;2.33;;
38053;SDS011;23859;50.672;7.164;2023-07-29T13:51:42;2.58;;;2.25;;
38053;SDS011;23859;50.672;7.164;2023-07-29T13:54:08;3.70;;;2.10;;
38053;SDS011;23859;50.672;7.164;2023-07-29T13:56:34;3.03;;;2.40;;
38053;SDS011;23859;50.672;7.164;2023-07-29T13:59:00;2.22;;;1.70;;
38053;SDS011;23859;50.672;7.164;2023-07-29T14:01:26;3.30;;;1.90;;
38053;SDS011;23859;50.672;7.164;2023-07-29T14:03:52;4.15;;;1.90;;
38053;SDS011;23859;50.672;7.164;2023-07-29T14:06:18;2.47;;;1.60;;
38053;SDS011;23859;50.672;7.164;2023-07-29T14:08:44;2.50;;;1.90;;
38053;SDS011;23859;50.672;7.164;2023-07-29T14:11:10;2.20;;;1.90;;
38053;SDS011;23859;50.672;7.164;2023-07-29T14:13:36;2.25;;;1.70;;
38053;SDS011;23859;50.672;7.164;2023-07-29T14:16:02;2.90;;;1.83;;
38053;SDS011;23859;50.672;7.164;2023-07-29T14:18:28;2.50;;;2.10;;
38053;SDS011;23859;50.672;7.164;2023-07-29T14:20:55;3.13;;;1.95;;
38053;SDS011;23859;50.672;7.164;2023-07-29T14:23:21;2.83;;;2.00;;
38053;SDS011;23859;50.672;7.164;2023-07-29T14:25:47;4.32;;;1.85;;
38053;SDS011;23859;50.672;7.164;2023-07-29T14:28:13;2.03;;;1.83;;
38053;SDS011;23859;50.672;7.164;2023-07-29T14:30:39;4.65;;;1.80;;
38053;SDS011;23859;50.672;7.164;2023-07-29T14:33:06;3.78;;;2.05;;
38053;SDS011;23859;50.672;7.164;2023-07-29T14:35:32;2.10;;;1.50;;
38053;SDS011;23859;50.672;7.164;2023-07-29T14:37:58;1.63;;;1.45;;
38053;SDS011;23859;50.672;7.164;2023-07-29T14:40:24;2.20;;;1.50;;
38053;SDS011;23859;50.672;7.164;2023-07-29T14:42:50;2.67;;;1.85;;
38053;SDS011;23859;50.672;7.164;2023-07-29T14:45:16;3.35;;;1.83;;
38053;SDS011;23859;50.672;7.164;2023-07-29T14:47:42;2.20;;;1.70;;
38053;SDS011;23859;50.672;7.164;2023-07-29T14:50:08;2.33;;;1.70;;
38053;SDS011;23859;50.672;7.164;2023-07-29T14:52:34;1.92;;;1.73;;
38053;SDS011;23859;50.672;7.164;2023-07-29T14:55:00;4.00;;;1.67;;
38053;SDS011;23859;50.672;7.164;2023-07-29T14:57:26;2.88;;;1.67;;
38053;SDS011;23859;50.672;7.164;2023-07-29T14:59:52;3.65;;;1.80;;